MDT,Max TemperatureF,Mean TemperatureF,Min TemperatureF,Max Dew PointF,MeanDew PointF,Min DewpointF,Max Humidity, Mean Humidity, Min Humidity, Max Sea Level PressureIn, Mean Sea Level PressureIn, Min Sea Level PressureIn, Max VisibilityMiles, Mean VisibilityMiles, Min VisibilityMiles, Max Wind SpeedMPH, Mean Wind SpeedMPH, Max Gust SpeedMPH,PrecipitationIn, CloudCover, Events, WindDirDegrees
2013-4-1,52,41,29,27,25,22,85,58,30,30.29,30.22,30.15,10,10,10,16,8,21,0.00,2,,78
2013-4-2,46,39,31,32,28,24,85,69,53,30.26,30.23,30.19,10,10,10,21,10,25,0.00,3,,200
2013-4-3,55,44,33,31,28,23,89,59,29,30.26,30.20,30.13,10,10,10,24,13,33,0.00,2,,190
2013-4-4,67,46,25,34,30,23,92,60,28,30.21,30.11,30.03,10,10,7,16,7,21,0.00,0,,140
2013-4-5,76,58,39,37,30,27,70,43,16,30.02,29.77,29.60,10,10,7,35,8,47,T,0,,179
2013-4-6,71,58,44,39,30,23,65,41,17,29.83,29.77,29.64,10,10,10,30,15,37,0.00,1,,309
2013-4-7,72,58,44,46,36,27,86,53,20,29.80,29.70,29.57,10,10,10,20,6,23,0.01,2,Rain-Thunderstorm,281
2013-4-8,76,54,32,54,39,31,89,55,21,29.65,29.57,29.45,10,9,2,40,16,48,0.54,4,Rain-Thunderstorm,64
2013-4-9,32,24,15,30,13,10,92,83,74,30.34,30.05,29.65,10,3,0,38,26,47,0.01,8,Fog-Snow,353
2013-4-10,27,22,16,19,15,10,88,78,68,30.27,30.14,29.97,10,9,5,29,19,36,T,8,Snow,333
2013-4-11,44,31,17,27,21,13,92,69,45,30.02,29.88,29.77,10,10,10,26,13,33,0.00,4,,324
2013-4-12,53,41,28,37,31,24,100,73,45,30.06,29.98,29.87,10,10,4,25,9,31,0.04,4,Rain,322
2013-4-13,68,48,27,44,36,27,100,69,37,30.05,29.70,29.29,10,10,10,29,13,35,0.00,2,,173
2013-4-14,54,45,36,45,24,9,86,52,17,29.80,29.52,29.26,10,10,9,45,24,59,0.00,2,,320
2013-4-15,43,37,30,30,25,17,92,69,46,30.15,29.97,29.79,10,8,2,21,11,24,0.01,7,Snow,22
2013-4-16,42,36,29,28,27,24,92,72,51,30.21,30.12,30.02,10,10,10,24,13,30,T,8,Snow,81
2013-4-17,36,31,25,29,26,21,100,85,70,30.15,30.03,29.95,10,4,1,30,19,36,0.05,8,Rain-Snow,26
2013-4-18,34,29,24,23,20,18,92,73,54,30.20,30.11,30.03,10,8,1,30,19,38,0.01,6,Snow,332
2013-4-19,58,41,24,30,25,17,76,53,30,30.14,30.06,30.00,10,10,10,25,14,33,0.00,2,,306
2013-4-20,58,43,28,34,29,26,92,63,33,30.06,30.00,29.95,10,10,10,20,11,25,0.00,3,,131
2013-4-21,66,52,38,43,36,28,100,63,26,30.07,30.01,29.97,10,10,10,23,9,28,0.11,4,Rain,325
2013-4-22,45,35,25,43,33,20,100,85,69,30.41,30.08,29.91,10,6,0,35,19,40,0.19,8,Fog-Rain-Snow,49
2013-4-23,44,34,24,22,19,15,81,57,33,30.40,30.30,30.20,10,10,2,18,10,23,0.00,5,Snow,350
2013-4-24,59,40,21,29,20,15,84,52,19,30.27,30.21,30.14,10,10,9,29,9,37,0.00,1,,300
2013-4-25,73,50,26,34,26,21,75,46,16,30.24,30.03,29.85,10,10,8,26,11,36,0.00,0,,210
2013-4-26,76,55,33,39,26,18,92,52,12,30.15,30.05,29.92,10,9,2,25,9,35,0.00,0,,34
2013-4-27,81,57,32,35,26,18,82,46,10,30.15,30.01,29.88,10,10,10,16,5,22,0.00,0,,265
2013-4-28,86,64,42,33,30,26,62,37,12,29.88,29.78,29.71,10,10,6,25,12,32,0.00,0,,313
2013-4-29,84,67,49,39,36,32,66,41,16,29.83,29.62,29.45,10,9,1,23,10,31,0.00,1,,189
2013-4-30,68,54,40,37,33,23,71,49,26,29.99,29.73,29.46,10,10,9,33,18,43,0.01,1,Rain-Thunderstorm,36